sensor_id;sensor_type;location;lat;lon;timestamp;P1;durP1;ratioP1;P2;durP2;ratioP2
26478;SDS011;14163;-26.142;27.992;2023-07-22T00:00:53;12.20;;;11.00;;
26478;SDS011;14163;-26.142;27.992;2023-07-22T00:03:24;10.53;;;9.47;;
26478;SDS011;14163;-26.142;27.992;2023-07-22T00:06:02;10.60;;;9.50;;
26478;SDS011;14163;-26.142;27.992;2023-07-22T00:08:33;14.80;;;10.33;;
26478;SDS011;14163;-26.142;27.992;2023-07-22T00:11:02;13.13;;;11.77;;
26478;SDS011;14163;-26.142;27.992;2023-07-22T00:13:32;13.50;;;12.20;;
26478;SDS011;14163;-26.142;27.992;2023-07-22T00:16:01;11.70;;;10.60;;
26478;SDS011;14163;-26.142;27.992;2023-07-22T00:18:35;10.70;;;9.60;;
26478;SDS011;14163;-26.142;27.992;2023-07-22T00:21:04;9.53;;;8.57;;
26478;SDS011;14163;-26.142;27.992;2023-07-22T00:23:34;8.90;;;8.07;;
26478;SDS011;14163;-26.142;27.992;2023-07-22T00:26:04;10.27;;;9.17;;
26478;SDS011;14163;-26.142;27.992;2023-07-22T00:28:35;11.80;;;9.30;;
26478;SDS011;14163;-26.142;27.992;2023-07-22T00:31:04;9.63;;;8.80;;
26478;SDS011;14163;-26.142;27.992;2023-07-22T00:33:36;9.00;;;8.10;;
26478;SDS011;14163;-26.142;27.992;2023-07-22T00:36:05;9.80;;;8.10;;
26478;SDS011;14163;-26.142;27.992;2023-07-22T00:38:34;8.43;;;7.73;;
26478;SDS011;14163;-26.142;27.992;2023-07-22T00:41:03;8.87;;;7.97;;
26478;SDS011;14163;-26.142;27.992;2023-07-22T00:43:33;8.70;;;7.93;;
26478;SDS011;14163;-26.142;27.992;2023-07-22T00:46:02;7.87;;;7.10;;
26478;SDS011;14163;-26.142;27.992;2023-07-22T00:48:31;8.10;;;7.30;;
26478;SDS011;14163;-26.142;27.992;2023-07-22T00:51:02;9.60;;;7.30;;
26478;SDS011;14163;-26.142;27.992;2023-07-22T00:53:32;8.13;;;7.33;;
26478;SDS011;14163;-26.142;27.992;2023-07-22T00:56:01;10.03;;;7.57;;
26478;SDS011;14163;-26.142;27.992;2023-07-22T00:58:31;7.47;;;6.67;;
26478;SDS011;14163;-26.142;27.992;2023-07-22T01:01:01;6.73;;;6.13;;
26478;SDS011;14163;-26.142;27.992;2023-07-22T01:03:30;8.30;;;7.50;;
26478;SDS011;14163;-26.142;27.992;2023-07-22T01:05:59;7.77;;;7.07;;
26478;SDS011;14163;-26.142;27.992;2023-07-22T01:08:31;7.20;;;6.70;;
26478;SDS011;14163;-26.142;27.992;2023-07-22T01:11:00;7.10;;;6.50;;
26478;SDS011;14163;-26.142;27.992;2023-07-22T01:13:31;9.20;;;8.40;;
26478;SDS011;14163;-26.142;27.992;2023-07-22T01:16:00;8.83;;;8.03;;
26478;SDS011;14163;-26.142;27.992;2023-07-22T01:18:31;9.43;;;8.40;;
26478;SDS011;14163;-26.142;27.992;2023-07-22T01:21:03;8.50;;;7.60;;
26478;SDS011;14163;-26.142;27.992;2023-07-22T01:23:35;8.77;;;7.87;;
26478;SDS011;14163;-26.142;27.992;2023-07-22T01:26:05;7.33;;;6.73;;
26478;SDS011;14163;-26.142;27.992;2023-07-22T01:28:35;7.83;;;7.13;;
26478;SDS011;14163;-26.142;27.992;2023-07-22T01:31:05;8.33;;;7.63;;
26478;SDS011;14163;-26.142;27.992;2023-07-22T01:33:34;7.40;;;6.73;;
26478;SDS011;14163;-26.142;27.992;2023-07-22T01:36:04;8.20;;;7.40;;
26478;SDS011;14163;-26.142;27.992;2023-07-22T01:38:35;7.97;;;7.27;;
26478;SDS011;14163;-26.142;27.992;2023-07-22T01:41:05;9.33;;;8.50;;
26478;SDS011;14163;-26.142;27.992;2023-07-22T01:43:34;8.53;;;7.73;;
26478;SDS011;14163;-26.142;27.992;2023-07-22T01:46:04;7.43;;;6.83;;
26478;SDS011;14163;-26.142;27.992;2023-07-22T01:48:33;8.07;;;7.27;;
26478;SDS011;14163;-26.142;27.992;2023-07-22T01:51:03;7.03;;;6.50;;
26478;SDS011;14163;-26.142;27.992;2023-07-22T01:53:32;7.30;;;6.70;;
26478;SDS011;14163;-26.142;27.992;2023-07-22T01:56:03;6.80;;;6.20;;
26478;SDS011;14163;-26.142;27.992;2023-07-22T01:58:33;6.70;;;6.20;;
26478;SDS011;14163;-26.142;27.992;2023-07-22T02:01:02;6.50;;;5.90;;
26478;SDS011;14163;-26.142;27.992;2023-07-22T02:03:32;5.87;;;5.37;;
26478;SDS011;14163;-26.142;27.992;2023-07-22T02:06:01;7.13;;;6.37;;
26478;SDS011;14163;-26.142;27.992;2023-07-22T02:08:31;7.53;;;6.93;;
26478;SDS011;14163;-26.142;27.992;2023-07-22T02:11:04;7.60;;;6.67;;
26478;SDS011;14163;-26.142;27.992;2023-07-22T02:13:35;7.30;;;6.70;;
26478;SDS011;14163;-26.142;27.992;2023-07-22T02:16:04;8.10;;;7.40;;
26478;SDS011;14163;-26.142;27.992;2023-07-22T02:18:37;8.73;;;7.00;;
26478;SDS011;14163;-26.142;27.992;2023-07-22T02:21:06;8.07;;;7.37;;
26478;SDS011;14163;-26.142;27.992;2023-07-22T02:23:35;8.20;;;7.40;;
26478;SDS011;14163;-26.142;27.992;2023-07-22T02:26:06;8.57;;;7.77;;
26478;SDS011;14163;-26.142;27.992;2023-07-22T02:28:35;8.17;;;7.37;;
26478;SDS011;14163;-26.142;27.992;2023-07-22T02:31:05;9.00;;;8.20;;
26478;SDS011;14163;-26.142;27.992;2023-07-22T02:33:35;11.70;;;8.63;;
26478;SDS011;14163;-26.142;27.992;2023-07-22T02:36:04;9.13;;;8.27;;
26478;SDS011;14163;-26.142;27.992;2023-07-22T02:38:34;9.13;;;8.33;;
26478;SDS011;14163;-26.142;27.992;2023-07-22T02:41:03;9.13;;;8.20;;
26478;SDS011;14163;-26.142;27.992;2023-07-22T02:43:34;9.10;;;8.20;;
26478;SDS011;14163;-26.142;27.992;2023-07-22T02:46:04;8.63;;;7.93;;
26478;SDS011;14163;-26.142;27.992;2023-07-22T02:48:33;8.43;;;7.73;;
26478;SDS011;14163;-26.142;27.992;2023-07-22T02:51:03;9.20;;;7.80;;
26478;SDS011;14163;-26.142;27.992;2023-07-22T02:53:33;9.20;;;8.30;;
26478;SDS011;14163;-26.142;27.992;2023-07-22T02:56:04;9.60;;;8.77;;
26478;SDS011;14163;-26.142;27.992;2023-07-22T02:58:36;9.50;;;8.57;;
26478;SDS011;14163;-26.142;27.992;2023-07-22T03:01:07;10.40;;;9.40;;
26478;SDS011;14163;-26.142;27.992;2023-07-22T03:03:37;9.73;;;8.73;;
26478;SDS011;14163;-26.142;27.992;2023-07-22T03:06:06;10.60;;;9.60;;
26478;SDS011;14163;-26.142;27.992;2023-07-22T03:08:36;10.47;;;9.50;;
26478;SDS011;14163;-26.142;27.992;2023-07-22T03:11:07;10.57;;;9.50;;
26478;SDS011;14163;-26.142;27.992;2023-07-22T03:13:37;12.27;;;10.90;;
26478;SDS011;14163;-26.142;27.992;2023-07-22T03:16:06;9.97;;;8.80;;
26478;SDS011;14163;-26.142;27.992;2023-07-22T03:18:36;9.70;;;8.70;;
26478;SDS011;14163;-26.142;27.992;2023-07-22T03:21:07;9.57;;;8.73;;
26478;SDS011;14163;-26.142;27.992;2023-07-22T03:23:36;9.63;;;8.40;;
26478;SDS011;14163;-26.142;27.992;2023-07-22T03:26:07;11.00;;;9.90;;
26478;SDS011;14163;-26.142;27.992;2023-07-22T03:28:37;11.90;;;9.53;;
26478;SDS011;14163;-26.142;27.992;2023-07-22T03:31:07;10.80;;;9.70;;
26478;SDS011;14163;-26.142;27.992;2023-07-22T03:33:36;10.07;;;9.00;;
26478;SDS011;14163;-26.142;27.992;2023-07-22T03:36:08;12.50;;;11.23;;
26478;SDS011;14163;-26.142;27.992;2023-07-22T03:38:38;10.53;;;9.40;;
26478;SDS011;14163;-26.142;27.992;2023-07-22T03:41:09;12.43;;;11.03;;
26478;SDS011;14163;-26.142;27.992;2023-07-22T03:43:38;11.13;;;9.93;;
26478;SDS011;14163;-26.142;27.992;2023-07-22T03:46:09;13.07;;;11.77;;
26478;SDS011;14163;-26.142;27.992;2023-07-22T03:48:38;12.47;;;11.17;;
26478;SDS011;14163;-26.142;27.992;2023-07-22T03:51:07;12.73;;;11.40;;
26478;SDS011;14163;-26.142;27.992;2023-07-22T03:53:36;13.30;;;12.00;;
26478;SDS011;14163;-26.142;27.992;2023-07-22T03:56:05;13.90;;;12.60;;
26478;SDS011;14163;-26.142;27.992;2023-07-22T03:58:36;14.30;;;12.80;;
26478;SDS011;14163;-26.142;27.992;2023-07-22T04:01:05;14.67;;;12.40;;
26478;SDS011;14163;-26.142;27.992;2023-07-22T04:03:38;12.97;;;11.67;;
26478;SDS011;14163;-26.142;27.992;2023-07-22T04:06:07;15.43;;;13.23;;
26478;SDS011;14163;-26.142;27.992;2023-07-22T04:08:36;14.30;;;12.80;;
26478;SDS011;14163;-26.142;27.992;2023-07-22T04:11:06;14.27;;;12.77;;
26478;SDS011;14163;-26.142;27.992;2023-07-22T04:13:36;13.70;;;12.40;;
26478;SDS011;14163;-26.142;27.992;2023-07-22T04:16:06;17.37;;;12.83;;
26478;SDS011;14163;-26.142;27.992;2023-07-22T04:18:35;15.00;;;13.50;;
26478;SDS011;14163;-26.142;27.992;2023-07-22T04:21:04;15.57;;;14.03;;
26478;SDS011;14163;-26.142;27.992;2023-07-22T04:23:33;15.77;;;14.07;;
26478;SDS011;14163;-26.142;27.992;2023-07-22T04:26:03;17.13;;;15.33;;
26478;SDS011;14163;-26.142;27.992;2023-07-22T04:28:33;19.33;;;15.10;;
26478;SDS011;14163;-26.142;27.992;2023-07-22T04:31:05;18.27;;;16.30;;
26478;SDS011;14163;-26.142;27.992;2023-07-22T04:33:35;19.80;;;16.53;;
26478;SDS011;14163;-26.142;27.992;2023-07-22T04:36:04;18.53;;;16.50;;
26478;SDS011;14163;-26.142;27.992;2023-07-22T04:38:33;18.10;;;16.20;;
26478;SDS011;14163;-26.142;27.992;2023-07-22T04:41:02;18.87;;;16.97;;
26478;SDS011;14163;-26.142;27.992;2023-07-22T04:43:32;19.47;;;15.90;;
26478;SDS011;14163;-26.142;27.992;2023-07-22T04:46:03;19.17;;;17.13;;
26478;SDS011;14163;-26.142;27.992;2023-07-22T04:48:34;18.70;;;16.80;;
26478;SDS011;14163;-26.142;27.992;2023-07-22T04:51:04;20.77;;;15.87;;
26478;SDS011;14163;-26.142;27.992;2023-07-22T04:53:34;20.40;;;16.33;;
26478;SDS011;14163;-26.142;27.992;2023-07-22T04:56:03;18.20;;;16.30;;
26478;SDS011;14163;-26.142;27.992;2023-07-22T04:58:32;17.17;;;15.30;;
26478;SDS011;14163;-26.142;27.992;2023-07-22T05:01:04;16.80;;;14.47;;
26478;SDS011;14163;-26.142;27.992;2023-07-22T05:03:34;16.17;;;14.33;;
26478;SDS011;14163;-26.142;27.992;2023-07-22T05:06:03;18.30;;;16.40;;
26478;SDS011;14163;-26.142;27.992;2023-07-22T05:08:34;19.17;;;14.33;;
26478;SDS011;14163;-26.142;27.992;2023-07-22T05:11:04;19.07;;;16.23;;
26478;SDS011;14163;-26.142;27.992;2023-07-22T05:13:35;18.77;;;14.40;;
26478;SDS011;14163;-26.142;27.992;2023-07-22T05:16:06;20.63;;;16.40;;
26478;SDS011;14163;-26.142;27.992;2023-07-22T05:18:36;15.73;;;13.93;;
26478;SDS011;14163;-26.142;27.992;2023-07-22T05:21:07;18.93;;;15.03;;
26478;SDS011;14163;-26.142;27.992;2023-07-22T05:23:37;19.70;;;14.53;;
26478;SDS011;14163;-26.142;27.992;2023-07-22T05:26:07;16.03;;;14.37;;
26478;SDS011;14163;-26.142;27.992;2023-07-22T05:28:36;20.43;;;16.87;;
26478;SDS011;14163;-26.142;27.992;2023-07-22T05:31:07;16.90;;;14.33;;
26478;SDS011;14163;-26.142;27.992;2023-07-22T05:33:36;19.10;;;16.43;;
26478;SDS011;14163;-26.142;27.992;2023-07-22T05:36:05;18.23;;;16.30;;
26478;SDS011;14163;-26.142;27.992;2023-07-22T05:38:35;17.17;;;14.40;;
26478;SDS011;14163;-26.142;27.992;2023-07-22T05:41:04;20.03;;;15.67;;
26478;SDS011;14163;-26.142;27.992;2023-07-22T05:43:34;18.53;;;16.53;;
26478;SDS011;14163;-26.142;27.992;2023-07-22T05:46:03;17.30;;;15.30;;
26478;SDS011;14163;-26.142;27.992;2023-07-22T05:48:34;17.03;;;15.23;;
26478;SDS011;14163;-26.142;27.992;2023-07-22T05:51:04;17.97;;;15.77;;
26478;SDS011;14163;-26.142;27.992;2023-07-22T05:53:33;21.53;;;17.17;;
26478;SDS011;14163;-26.142;27.992;2023-07-22T05:56:02;17.40;;;14.33;;
26478;SDS011;14163;-26.142;27.992;2023-07-22T05:58:32;20.37;;;16.10;;
26478;SDS011;14163;-26.142;27.992;2023-07-22T06:01:01;21.30;;;16.53;;
26478;SDS011;14163;-26.142;27.992;2023-07-22T08:11:38;16.13;;;13.27;;
26478;SDS011;14163;-26.142;27.992;2023-07-22T08:14:07;16.23;;;14.50;;
26478;SDS011;14163;-26.142;27.992;2023-07-22T08:16:37;17.50;;;15.00;;
26478;SDS011;14163;-26.142;27.992;2023-07-22T08:19:07;18.77;;;16.50;;
26478;SDS011;14163;-26.142;27.992;2023-07-22T08:21:38;21.63;;;17.20;;
26478;SDS011;14163;-26.142;27.992;2023-07-22T08:24:07;18.20;;;16.10;;
26478;SDS011;14163;-26.142;27.992;2023-07-22T08:26:40;20.27;;;15.93;;
26478;SDS011;14163;-26.142;27.992;2023-07-22T08:29:10;19.60;;;16.60;;
26478;SDS011;14163;-26.142;27.992;2023-07-22T08:31:43;18.70;;;16.50;;
26478;SDS011;14163;-26.142;27.992;2023-07-22T08:34:13;18.73;;;16.67;;
26478;SDS011;14163;-26.142;27.992;2023-07-22T08:36:43;27.83;;;21.87;;
26478;SDS011;14163;-26.142;27.992;2023-07-22T08:39:15;21.57;;;19.27;;
26478;SDS011;14163;-26.142;27.992;2023-07-22T08:41:47;19.73;;;17.63;;
26478;SDS011;14163;-26.142;27.992;2023-07-22T08:44:19;18.53;;;16.10;;
26478;SDS011;14163;-26.142;27.992;2023-07-22T08:46:49;19.10;;;17.10;;
26478;SDS011;14163;-26.142;27.992;2023-07-22T08:49:24;20.67;;;17.20;;
26478;SDS011;14163;-26.142;27.992;2023-07-22T08:51:55;14.73;;;13.23;;
26478;SDS011;14163;-26.142;27.992;2023-07-22T08:54:24;17.03;;;14.77;;
26478;SDS011;14163;-26.142;27.992;2023-07-22T08:56:55;15.43;;;13.83;;
26478;SDS011;14163;-26.142;27.992;2023-07-22T08:59:25;17.60;;;14.37;;
26478;SDS011;14163;-26.142;27.992;2023-07-22T09:01:55;12.40;;;11.10;;
26478;SDS011;14163;-26.142;27.992;2023-07-22T09:04:25;15.87;;;12.70;;
26478;SDS011;14163;-26.142;27.992;2023-07-22T09:06:54;14.40;;;12.17;;
26478;SDS011;14163;-26.142;27.992;2023-07-22T09:09:24;14.60;;;13.03;;
26478;SDS011;14163;-26.142;27.992;2023-07-22T09:11:55;13.17;;;11.87;;
26478;SDS011;14163;-26.142;27.992;2023-07-22T09:14:26;16.37;;;14.57;;
26478;SDS011;14163;-26.142;27.992;2023-07-22T09:16:55;12.03;;;10.80;;
26478;SDS011;14163;-26.142;27.992;2023-07-22T09:19:25;11.53;;;10.37;;
26478;SDS011;14163;-26.142;27.992;2023-07-22T09:21:54;11.70;;;10.50;;
26478;SDS011;14163;-26.142;27.992;2023-07-22T09:24:26;12.80;;;11.63;;
26478;SDS011;14163;-26.142;27.992;2023-07-22T09:26:57;12.97;;;11.73;;
26478;SDS011;14163;-26.142;27.992;2023-07-22T09:29:33;13.97;;;12.57;;
26478;SDS011;14163;-26.142;27.992;2023-07-22T09:32:05;11.47;;;10.40;;
26478;SDS011;14163;-26.142;27.992;2023-07-22T09:34:35;13.30;;;10.30;;
26478;SDS011;14163;-26.142;27.992;2023-07-22T09:37:05;15.47;;;12.63;;
26478;SDS011;14163;-26.142;27.992;2023-07-22T09:39:34;11.40;;;10.40;;
26478;SDS011;14163;-26.142;27.992;2023-07-22T09:42:05;12.10;;;11.00;;
26478;SDS011;14163;-26.142;27.992;2023-07-22T09:44:35;14.27;;;12.83;;
26478;SDS011;14163;-26.142;27.992;2023-07-22T09:47:06;13.00;;;11.80;;
26478;SDS011;14163;-26.142;27.992;2023-07-22T09:49:39;13.70;;;11.57;;
26478;SDS011;14163;-26.142;27.992;2023-07-22T09:52:09;12.03;;;10.83;;
26478;SDS011;14163;-26.142;27.992;2023-07-22T09:54:46;13.23;;;11.90;;
26478;SDS011;14163;-26.142;27.992;2023-07-22T09:57:18;12.73;;;11.53;;
26478;SDS011;14163;-26.142;27.992;2023-07-22T09:59:50;13.20;;;11.90;;
26478;SDS011;14163;-26.142;27.992;2023-07-22T10:02:20;14.23;;;12.73;;
26478;SDS011;14163;-26.142;27.992;2023-07-22T10:04:51;12.10;;;10.97;;
26478;SDS011;14163;-26.142;27.992;2023-07-22T10:07:22;12.83;;;11.57;;
26478;SDS011;14163;-26.142;27.992;2023-07-22T10:09:53;11.30;;;10.30;;
26478;SDS011;14163;-26.142;27.992;2023-07-22T10:12:25;11.73;;;10.73;;
26478;SDS011;14163;-26.142;27.992;2023-07-22T10:14:56;14.27;;;12.77;;
26478;SDS011;14163;-26.142;27.992;2023-07-22T10:17:25;13.27;;;11.80;;
26478;SDS011;14163;-26.142;27.992;2023-07-22T10:19:57;13.00;;;11.70;;
26478;SDS011;14163;-26.142;27.992;2023-07-22T10:22:26;10.43;;;9.53;;
26478;SDS011;14163;-26.142;27.992;2023-07-22T10:24:57;11.73;;;10.63;;
26478;SDS011;14163;-26.142;27.992;2023-07-22T10:30:25;12.43;;;11.23;;
26478;SDS011;14163;-26.142;27.992;2023-07-22T10:32:55;12.47;;;11.37;;
26478;SDS011;14163;-26.142;27.992;2023-07-22T10:35:34;10.67;;;9.77;;
26478;SDS011;14163;-26.142;27.992;2023-07-22T10:38:10;12.13;;;10.90;;
26478;SDS011;14163;-26.142;27.992;2023-07-22T10:40:46;12.83;;;11.47;;
26478;SDS011;14163;-26.142;27.992;2023-07-22T10:43:25;11.67;;;10.57;;
26478;SDS011;14163;-26.142;27.992;2023-07-22T10:45:55;13.13;;;11.40;;
26478;SDS011;14163;-26.142;27.992;2023-07-22T10:48:25;10.43;;;9.43;;
26478;SDS011;14163;-26.142;27.992;2023-07-22T10:50:58;11.10;;;10.00;;
26478;SDS011;14163;-26.142;27.992;2023-07-22T10:53:37;11.33;;;10.33;;
26478;SDS011;14163;-26.142;27.992;2023-07-22T10:56:14;12.03;;;9.97;;
26478;SDS011;14163;-26.142;27.992;2023-07-22T10:59:01;11.27;;;9.97;;
26478;SDS011;14163;-26.142;27.992;2023-07-22T11:01:34;12.00;;;10.80;;
26478;SDS011;14163;-26.142;27.992;2023-07-22T11:04:11;12.70;;;10.30;;
26478;SDS011;14163;-26.142;27.992;2023-07-22T11:06:56;11.40;;;10.50;;
26478;SDS011;14163;-26.142;27.992;2023-07-22T11:09:39;11.07;;;10.10;;
26478;SDS011;14163;-26.142;27.992;2023-07-22T11:12:15;10.93;;;10.03;;
26478;SDS011;14163;-26.142;27.992;2023-07-22T11:14:49;10.37;;;9.57;;
26478;SDS011;14163;-26.142;27.992;2023-07-22T11:17:27;10.37;;;9.47;;
26478;SDS011;14163;-26.142;27.992;2023-07-22T11:19:57;20.40;;;11.93;;
26478;SDS011;14163;-26.142;27.992;2023-07-22T11:22:27;12.33;;;11.07;;
26478;SDS011;14163;-26.142;27.992;2023-07-22T11:24:56;10.80;;;9.77;;
26478;SDS011;14163;-26.142;27.992;2023-07-22T11:27:26;12.17;;;10.97;;
26478;SDS011;14163;-26.142;27.992;2023-07-22T11:29:59;12.60;;;11.40;;
26478;SDS011;14163;-26.142;27.992;2023-07-22T11:32:30;10.73;;;9.83;;
26478;SDS011;14163;-26.142;27.992;2023-07-22T11:34:59;11.67;;;10.60;;
26478;SDS011;14163;-26.142;27.992;2023-07-22T11:37:29;13.80;;;12.60;;
26478;SDS011;14163;-26.142;27.992;2023-07-22T11:39:59;11.57;;;10.47;;
26478;SDS011;14163;-26.142;27.992;2023-07-22T11:42:29;12.40;;;10.70;;
26478;SDS011;14163;-26.142;27.992;2023-07-22T11:45:02;12.57;;;11.47;;
26478;SDS011;14163;-26.142;27.992;2023-07-22T11:47:33;9.80;;;9.07;;
26478;SDS011;14163;-26.142;27.992;2023-07-22T11:50:02;11.60;;;10.50;;
26478;SDS011;14163;-26.142;27.992;2023-07-22T11:52:32;9.90;;;9.10;;
26478;SDS011;14163;-26.142;27.992;2023-07-22T11:55:02;10.00;;;9.00;;
26478;SDS011;14163;-26.142;27.992;2023-07-22T11:57:31;10.10;;;9.20;;
26478;SDS011;14163;-26.142;27.992;2023-07-22T12:00:02;11.93;;;10.83;;
26478;SDS011;14163;-26.142;27.992;2023-07-22T12:02:36;12.33;;;11.03;;
26478;SDS011;14163;-26.142;27.992;2023-07-22T12:05:05;11.27;;;9.60;;
26478;SDS011;14163;-26.142;27.992;2023-07-22T12:07:36;9.43;;;8.63;;
26478;SDS011;14163;-26.142;27.992;2023-07-22T12:10:07;11.33;;;10.13;;
26478;SDS011;14163;-26.142;27.992;2023-07-22T12:12:39;9.97;;;9.00;;
26478;SDS011;14163;-26.142;27.992;2023-07-22T12:15:12;10.50;;;9.37;;
26478;SDS011;14163;-26.142;27.992;2023-07-22T12:17:46;12.50;;;11.17;;
26478;SDS011;14163;-26.142;27.992;2023-07-22T12:20:17;11.23;;;10.17;;
26478;SDS011;14163;-26.142;27.992;2023-07-22T12:22:47;12.97;;;10.70;;
26478;SDS011;14163;-26.142;27.992;2023-07-22T12:25:17;10.50;;;9.47;;
26478;SDS011;14163;-26.142;27.992;2023-07-22T12:27:47;10.33;;;9.40;;
26478;SDS011;14163;-26.142;27.992;2023-07-22T12:30:18;9.23;;;8.33;;
26478;SDS011;14163;-26.142;27.992;2023-07-22T12:32:49;8.97;;;7.40;;
26478;SDS011;14163;-26.142;27.992;2023-07-22T12:35:19;9.43;;;8.63;;
26478;SDS011;14163;-26.142;27.992;2023-07-22T12:37:48;8.93;;;8.23;;
26478;SDS011;14163;-26.142;27.992;2023-07-22T12:40:18;11.47;;;9.00;;
26478;SDS011;14163;-26.142;27.992;2023-07-22T12:42:49;10.27;;;9.20;;
26478;SDS011;14163;-26.142;27.992;2023-07-22T12:45:21;10.80;;;9.20;;
26478;SDS011;14163;-26.142;27.992;2023-07-22T12:47:50;9.73;;;8.83;;
26478;SDS011;14163;-26.142;27.992;2023-07-22T12:50:20;9.93;;;8.90;;
26478;SDS011;14163;-26.142;27.992;2023-07-22T12:52:50;11.60;;;10.50;;
26478;SDS011;14163;-26.142;27.992;2023-07-22T12:55:20;11.33;;;10.30;;
26478;SDS011;14163;-26.142;27.992;2023-07-22T12:57:49;14.50;;;13.00;;
26478;SDS011;14163;-26.142;27.992;2023-07-22T13:00:21;13.90;;;12.07;;
26478;SDS011;14163;-26.142;27.992;2023-07-22T13:02:50;12.73;;;11.43;;
26478;SDS011;14163;-26.142;27.992;2023-07-22T13:05:20;13.93;;;12.53;;
26478;SDS011;14163;-26.142;27.992;2023-07-22T13:07:50;17.53;;;13.80;;
26478;SDS011;14163;-26.142;27.992;2023-07-22T13:10:20;12.80;;;11.47;;
26478;SDS011;14163;-26.142;27.992;2023-07-22T13:12:51;14.80;;;13.23;;
26478;SDS011;14163;-26.142;27.992;2023-07-22T13:15:25;14.07;;;12.67;;
26478;SDS011;14163;-26.142;27.992;2023-07-22T13:17:55;13.37;;;11.97;;
26478;SDS011;14163;-26.142;27.992;2023-07-22T13:20:28;15.20;;;13.63;;
26478;SDS011;14163;-26.142;27.992;2023-07-22T13:22:58;14.73;;;12.97;;
26478;SDS011;14163;-26.142;27.992;2023-07-22T13:25:28;14.97;;;13.10;;
26478;SDS011;14163;-26.142;27.992;2023-07-22T13:27:58;13.43;;;12.07;;
26478;SDS011;14163;-26.142;27.992;2023-07-22T13:30:29;14.40;;;12.90;;
26478;SDS011;14163;-26.142;27.992;2023-07-22T13:32:59;14.83;;;13.00;;
26478;SDS011;14163;-26.142;27.992;2023-07-22T13:35:28;15.90;;;12.87;;
26478;SDS011;14163;-26.142;27.992;2023-07-22T13:37:57;17.73;;;13.70;;
26478;SDS011;14163;-26.142;27.992;2023-07-22T13:40:27;16.83;;;15.07;;
26478;SDS011;14163;-26.142;27.992;2023-07-22T13:42:57;17.43;;;15.73;;
26478;SDS011;14163;-26.142;27.992;2023-07-22T13:45:27;16.10;;;14.50;;
26478;SDS011;14163;-26.142;27.992;2023-07-22T13:47:58;16.20;;;14.60;;
26478;SDS011;14163;-26.142;27.992;2023-07-22T13:50:27;16.33;;;14.50;;
26478;SDS011;14163;-26.142;27.992;2023-07-22T13:52:56;18.73;;;16.80;;
26478;SDS011;14163;-26.142;27.992;2023-07-22T13:55:26;13.97;;;12.57;;
26478;SDS011;14163;-26.142;27.992;2023-07-22T13:57:55;14.60;;;13.10;;
26478;SDS011;14163;-26.142;27.992;2023-07-22T14:00:25;13.70;;;12.30;;
26478;SDS011;14163;-26.142;27.992;2023-07-22T16:10:39;34.37;;;26.63;;
26478;SDS011;14163;-26.142;27.992;2023-07-22T16:13:08;34.47;;;26.83;;
26478;SDS011;14163;-26.142;27.992;2023-07-22T16:15:38;31.57;;;27.67;;
26478;SDS011;14163;-26.142;27.992;2023-07-22T16:18:08;34.70;;;26.60;;
26478;SDS011;14163;-26.142;27.992;2023-07-22T16:20:38;43.40;;;28.50;;
26478;SDS011;14163;-26.142;27.992;2023-07-22T16:23:07;36.03;;;28.57;;
26478;SDS011;14163;-26.142;27.992;2023-07-22T16:25:37;35.80;;;29.30;;
26478;SDS011;14163;-26.142;27.992;2023-07-22T16:28:09;40.00;;;30.87;;
26478;SDS011;14163;-26.142;27.992;2023-07-22T16:30:41;36.57;;;30.27;;
26478;SDS011;14163;-26.142;27.992;2023-07-22T16:33:11;43.70;;;33.80;;
26478;SDS011;14163;-26.142;27.992;2023-07-22T16:35:41;43.93;;;34.40;;
26478;SDS011;14163;-26.142;27.992;2023-07-22T16:38:11;45.70;;;37.03;;
26478;SDS011;14163;-26.142;27.992;2023-07-22T16:40:42;47.77;;;39.27;;
26478;SDS011;14163;-26.142;27.992;2023-07-22T16:43:11;49.57;;;37.67;;
26478;SDS011;14163;-26.142;27.992;2023-07-22T16:45:40;50.70;;;39.60;;
26478;SDS011;14163;-26.142;27.992;2023-07-22T16:48:10;50.80;;;38.27;;
26478;SDS011;14163;-26.142;27.992;2023-07-22T16:50:39;54.10;;;39.63;;
26478;SDS011;14163;-26.142;27.992;2023-07-22T16:53:09;50.17;;;40.00;;
26478;SDS011;14163;-26.142;27.992;2023-07-22T16:55:39;59.67;;;43.73;;
26478;SDS011;14163;-26.142;27.992;2023-07-22T16:58:10;63.83;;;47.13;;
26478;SDS011;14163;-26.142;27.992;2023-07-22T17:00:39;60.00;;;45.80;;
26478;SDS011;14163;-26.142;27.992;2023-07-22T17:03:08;60.97;;;45.53;;
26478;SDS011;14163;-26.142;27.992;2023-07-22T17:05:37;56.27;;;44.90;;
26478;SDS011;14163;-26.142;27.992;2023-07-22T17:08:07;62.23;;;45.87;;
26478;SDS011;14163;-26.142;27.992;2023-07-22T17:10:36;58.07;;;44.83;;
26478;SDS011;14163;-26.142;27.992;2023-07-22T17:13:05;58.53;;;45.93;;
26478;SDS011;14163;-26.142;27.992;2023-07-22T17:15:37;59.23;;;46.77;;
26478;SDS011;14163;-26.142;27.992;2023-07-22T17:18:07;62.27;;;47.60;;
26478;SDS011;14163;-26.142;27.992;2023-07-22T17:20:37;60.23;;;44.87;;
26478;SDS011;14163;-26.142;27.992;2023-07-22T17:23:06;58.00;;;45.47;;
26478;SDS011;14163;-26.142;27.992;2023-07-22T17:25:37;62.10;;;47.67;;
26478;SDS011;14163;-26.142;27.992;2023-07-22T17:28:07;64.40;;;46.70;;
26478;SDS011;14163;-26.142;27.992;2023-07-22T17:30:39;61.13;;;46.67;;
26478;SDS011;14163;-26.142;27.992;2023-07-22T17:33:09;65.83;;;47.50;;
26478;SDS011;14163;-26.142;27.992;2023-07-22T17:35:39;63.73;;;47.10;;
26478;SDS011;14163;-26.142;27.992;2023-07-22T17:38:08;60.53;;;45.57;;
26478;SDS011;14163;-26.142;27.992;2023-07-22T17:40:39;64.87;;;47.53;;
26478;SDS011;14163;-26.142;27.992;2023-07-22T17:43:10;62.13;;;48.57;;
26478;SDS011;14163;-26.142;27.992;2023-07-22T17:45:43;65.73;;;50.63;;
26478;SDS011;14163;-26.142;27.992;2023-07-22T17:48:13;100.53;;;73.33;;
26478;SDS011;14163;-26.142;27.992;2023-07-22T17:53:23;70.37;;;51.90;;
26478;SDS011;14163;-26.142;27.992;2023-07-22T17:55:54;62.27;;;48.77;;
26478;SDS011;14163;-26.142;27.992;2023-07-22T17:58:24;63.80;;;48.43;;
26478;SDS011;14163;-26.142;27.992;2023-07-22T18:00:57;66.20;;;51.40;;
26478;SDS011;14163;-26.142;27.992;2023-07-22T18:03:28;67.23;;;48.63;;
26478;SDS011;14163;-26.142;27.992;2023-07-22T18:06:03;75.23;;;53.77;;
26478;SDS011;14163;-26.142;27.992;2023-07-22T18:08:33;66.40;;;51.67;;
26478;SDS011;14163;-26.142;27.992;2023-07-22T18:11:04;86.80;;;59.33;;
26478;SDS011;14163;-26.142;27.992;2023-07-22T18:13:34;70.20;;;53.90;;
26478;SDS011;14163;-26.142;27.992;2023-07-22T18:16:06;75.20;;;54.13;;
26478;SDS011;14163;-26.142;27.992;2023-07-22T18:18:37;66.00;;;53.03;;
26478;SDS011;14163;-26.142;27.992;2023-07-22T18:21:08;76.43;;;55.33;;
26478;SDS011;14163;-26.142;27.992;2023-07-22T18:23:39;71.67;;;52.53;;
26478;SDS011;14163;-26.142;27.992;2023-07-22T18:26:08;71.03;;;51.83;;
26478;SDS011;14163;-26.142;27.992;2023-07-22T18:28:38;74.00;;;54.70;;
26478;SDS011;14163;-26.142;27.992;2023-07-22T18:31:09;79.73;;;56.70;;
26478;SDS011;14163;-26.142;27.992;2023-07-22T18:33:38;79.80;;;55.93;;
26478;SDS011;14163;-26.142;27.992;2023-07-22T18:36:13;81.27;;;59.40;;
26478;SDS011;14163;-26.142;27.992;2023-07-22T18:38:43;92.27;;;60.87;;
26478;SDS011;14163;-26.142;27.992;2023-07-22T18:41:13;79.60;;;57.30;;
26478;SDS011;14163;-26.142;27.992;2023-07-22T18:43:43;82.67;;;61.40;;